createdAt,value
2019-03-22T00:00:48.347Z,26.50
2019-03-22T00:05:54.144Z,27.80
2019-03-22T00:11:00.877Z,26.17
2019-03-22T00:16:08.741Z,31.50
2019-03-22T00:21:14.606Z,27.47
2019-03-22T00:26:20.436Z,29.25
2019-03-22T00:31:26.108Z,26.77
2019-03-22T00:36:31.866Z,27.02
2019-03-22T00:41:37.924Z,27.48
2019-03-22T00:46:43.599Z,27.25
2019-03-22T00:51:50.326Z,25.63
2019-03-22T00:56:56.287Z,25.77
2019-03-22T01:02:02.779Z,24.10
2019-03-22T01:07:08.810Z,23.40
2019-03-22T01:12:14.480Z,23.07
2019-03-22T01:17:20.530Z,25.53
2019-03-22T01:22:26.212Z,24.35
2019-03-22T01:27:40.445Z,23.85
2019-03-22T01:32:39.711Z,22.07
2019-03-22T01:37:45.389Z,22.30
2019-03-22T01:42:51.196Z,22.50
2019-03-22T01:47:57.316Z,23.50
2019-03-22T01:53:03.172Z,21.75
2019-03-22T01:58:09.247Z,22.53
2019-03-22T02:03:15.077Z,23.25
2019-03-22T02:08:21.862Z,24.73
2019-03-22T02:13:27.921Z,22.70
2019-03-22T02:18:33.593Z,25.37
2019-03-22T02:23:40.046Z,23.67
2019-03-22T02:28:45.731Z,26.20
2019-03-22T02:33:51.495Z,20.85
2019-03-22T02:38:58.404Z,25.95
2019-03-22T02:44:04.626Z,24.27
2019-03-22T02:49:11.355Z,24.17
2019-03-22T02:54:17.077Z,23.50
2019-03-22T02:59:22.687Z,23.40
2019-03-22T03:04:29.820Z,25.03
2019-03-22T03:09:35.800Z,22.87
2019-03-22T03:14:41.483Z,21.82
2019-03-22T03:19:47.078Z,21.97
2019-03-22T03:24:52.823Z,23.85
2019-03-22T03:29:58.849Z,22.37
2019-03-22T03:35:05.109Z,24.47
2019-03-22T03:40:13.344Z,22.02
2019-03-22T03:45:34.370Z,22.03
2019-03-22T03:50:40.540Z,25.33
2019-03-22T03:55:46.334Z,23.93
2019-03-22T04:00:52.401Z,22.00
2019-03-22T04:05:58.445Z,23.57
2019-03-22T04:11:05.094Z,23.23
2019-03-22T04:16:12.518Z,23.12
2019-03-22T04:21:18.225Z,25.60
2019-03-22T04:26:24.050Z,23.57
2019-03-22T04:31:30.181Z,23.60
2019-03-22T04:36:36.066Z,27.00
2019-03-22T04:41:41.810Z,26.20
2019-03-22T04:46:48.544Z,29.20
2019-03-22T04:51:56.043Z,28.13
2019-03-22T04:57:04.023Z,24.63
2019-03-22T05:02:11.141Z,23.55
2019-03-22T05:07:19.433Z,30.77
2019-03-22T05:12:26.142Z,30.03
2019-03-22T05:17:33.212Z,27.80
2019-03-22T05:22:40.274Z,26.40
2019-03-22T05:27:47.835Z,29.07
2019-03-22T05:32:53.617Z,28.10
2019-03-22T05:37:59.419Z,26.80
2019-03-22T05:43:05.159Z,38.00
2019-03-22T05:48:10.951Z,32.43
2019-03-22T05:53:16.994Z,32.70
2019-03-22T05:58:22.908Z,36.03
2019-03-22T06:03:29.066Z,33.77
2019-03-22T06:08:35.322Z,27.97
2019-03-22T06:13:41.106Z,30.30
2019-03-22T06:18:47.293Z,28.43
2019-03-22T06:23:53.483Z,29.30
2019-03-22T06:28:59.317Z,25.80
2019-03-22T06:34:06.121Z,27.97
2019-03-22T06:39:12.282Z,24.05
2019-03-22T06:44:18.688Z,27.87
2019-03-22T06:49:24.483Z,25.83
2019-03-22T06:54:31.894Z,27.27
2019-03-22T06:59:38.447Z,25.05
2019-03-22T07:04:44.344Z,24.35
2019-03-22T07:09:50.503Z,23.17
2019-03-22T07:14:56.406Z,22.32
2019-03-22T07:20:02.154Z,25.43
2019-03-22T07:25:08.507Z,24.90
2019-03-22T07:30:18.939Z,25.68
2019-03-22T07:35:23.732Z,24.18
2019-03-22T07:40:29.635Z,26.15
2019-03-22T07:45:35.865Z,23.65
2019-03-22T07:50:42.864Z,24.65
2019-03-22T07:55:48.805Z,22.27
2019-03-22T08:00:55.171Z,23.57
2019-03-22T08:06:01.139Z,24.50
2019-03-22T08:11:07.396Z,22.43
2019-03-22T08:16:13.307Z,24.45
2019-03-22T08:21:19.161Z,22.98
2019-03-22T08:26:24.996Z,25.55
2019-03-22T08:31:31.164Z,26.37
2019-03-22T08:36:36.976Z,27.85
2019-03-22T08:41:44.346Z,28.42
2019-03-22T08:46:50.341Z,24.15
2019-03-22T08:51:57.666Z,27.98
2019-03-22T08:57:03.543Z,27.30
2019-03-22T09:02:09.386Z,30.02
2019-03-22T09:07:15.203Z,28.52
2019-03-22T09:12:21.022Z,28.75
2019-03-22T09:17:26.937Z,31.95
2019-03-22T09:22:33.283Z,26.68
2019-03-22T09:27:39.286Z,30.40
2019-03-22T09:32:46.248Z,33.18
2019-03-22T09:37:52.204Z,27.87
2019-03-22T09:42:58.123Z,34.00
2019-03-22T09:48:06.119Z,34.85
2019-03-22T09:53:11.940Z,31.50
2019-03-22T09:58:17.718Z,28.77
2019-03-22T10:03:24.002Z,29.87
2019-03-22T10:08:29.776Z,27.90
2019-03-22T10:13:35.799Z,26.70
2019-03-22T10:18:42.720Z,25.17
2019-03-22T10:23:48.538Z,26.73
2019-03-22T10:28:55.460Z,25.80
2019-03-22T10:34:01.402Z,24.05
2019-03-22T10:39:09.613Z,25.15
2019-03-22T10:44:15.838Z,22.50
2019-03-22T10:49:21.992Z,25.12
2019-03-22T10:54:27.917Z,23.05
2019-03-22T10:59:33.775Z,29.42
2019-03-22T11:04:41.200Z,26.68
2019-03-22T11:09:47.497Z,26.07
2019-03-22T11:14:53.773Z,25.30
2019-03-22T11:19:59.630Z,28.17
2019-03-22T11:25:07.633Z,28.27
2019-03-22T11:30:15.968Z,26.57
2019-03-22T11:35:22.070Z,27.73
2019-03-22T11:40:27.982Z,33.38
2019-03-22T11:45:34.207Z,26.27
2019-03-22T11:50:40.536Z,26.57
2019-03-22T11:55:46.383Z,30.60
2019-03-22T12:00:52.200Z,31.35
2019-03-22T12:05:58.039Z,25.15
2019-03-22T12:11:03.842Z,25.23
2019-03-22T12:16:09.809Z,23.10
2019-03-22T12:21:15.613Z,25.48
2019-03-22T12:26:21.419Z,26.17
2019-03-22T12:31:29.016Z,24.57
2019-03-22T12:36:36.978Z,24.23
2019-03-22T12:41:42.785Z,25.12
2019-03-22T12:46:49.314Z,32.13
2019-03-22T12:51:55.215Z,29.00
2019-03-22T12:57:01.579Z,23.55
2019-03-22T13:02:08.415Z,24.05
2019-03-22T13:07:15.341Z,22.90
2019-03-22T13:12:21.340Z,31.25
2019-03-22T13:17:27.175Z,19.05
2019-03-22T13:22:34.087Z,18.15
2019-03-22T13:27:39.906Z,18.45
2019-03-22T13:32:52.179Z,15.80
2019-03-22T13:37:53.768Z,21.30
2019-03-22T13:43:00.488Z,19.70
2019-03-22T13:48:07.794Z,22.17
2019-03-22T13:53:13.969Z,18.45
2019-03-22T13:58:19.791Z,17.42
2019-03-22T14:03:26.364Z,18.80
2019-03-22T14:08:32.523Z,17.15
2019-03-22T14:13:39.775Z,14.73
2019-03-22T14:18:45.937Z,14.95
2019-03-22T14:23:51.742Z,15.08
2019-03-22T14:28:58.579Z,15.65
2019-03-22T14:34:04.668Z,15.72
2019-03-22T14:39:10.546Z,14.68
2019-03-22T14:44:24.975Z,15.30
2019-03-22T14:49:24.183Z,15.95
2019-03-22T14:54:29.986Z,15.43
2019-03-22T14:59:35.874Z,14.85
2019-03-22T15:04:41.713Z,14.53
2019-03-22T15:09:47.813Z,16.23
2019-03-22T15:15:03.349Z,13.80
2019-03-22T15:20:25.151Z,14.87
2019-03-22T15:25:59.764Z,15.70
2019-03-22T15:31:23.524Z,15.20
2019-03-22T15:36:51.755Z,13.75
2019-03-22T15:41:57.840Z,15.20
2019-03-22T15:47:03.660Z,13.60
2019-03-22T15:52:09.460Z,14.85
2019-03-22T15:57:15.391Z,15.48
2019-03-22T16:02:21.685Z,16.52
2019-03-22T16:07:27.511Z,15.18
2019-03-22T16:12:33.733Z,15.05
2019-03-22T16:17:39.553Z,16.97
2019-03-22T16:22:45.473Z,15.80
2019-03-22T16:27:51.288Z,17.05
2019-03-22T16:32:57.126Z,16.50
2019-03-22T16:38:03.353Z,19.15
2019-03-22T16:43:09.326Z,17.87
2019-03-22T16:48:15.732Z,16.37
2019-03-22T16:53:22.859Z,17.40
2019-03-22T16:58:29.462Z,17.23
2019-03-22T17:03:35.310Z,15.38
2019-03-22T17:08:41.119Z,17.52
2019-03-22T17:13:48.322Z,18.07
2019-03-22T17:18:54.427Z,19.02
2019-03-22T17:24:00.710Z,19.05
2019-03-22T17:29:07.610Z,19.90
2019-03-22T17:34:14.590Z,21.42
2019-03-22T17:39:21.104Z,17.35
2019-03-22T17:44:27.274Z,20.48
2019-03-22T17:49:33.651Z,21.12
2019-03-22T17:54:40.562Z,19.87
2019-03-22T17:59:46.985Z,20.05
2019-03-22T18:04:53.183Z,22.27
2019-03-22T18:09:59.373Z,22.50
2019-03-22T18:15:06.169Z,23.02
2019-03-22T18:20:12.316Z,28.32
2019-03-22T18:25:18.547Z,31.60
2019-03-22T18:30:24.522Z,33.73
2019-03-22T18:35:32.854Z,38.08
2019-03-22T18:40:40.129Z,40.78
2019-03-22T18:45:45.946Z,40.65
2019-03-22T18:50:56.684Z,42.13
2019-03-22T18:56:00.211Z,37.73
2019-03-22T19:01:06.368Z,42.50
2019-03-22T19:06:12.372Z,41.08
2019-03-22T19:11:19.367Z,44.23
2019-03-22T19:16:25.603Z,41.65
2019-03-22T19:21:35.722Z,40.45
2019-03-22T19:26:42.416Z,47.17
2019-03-22T19:31:48.600Z,43.42
2019-03-22T19:36:54.492Z,44.15
2019-03-22T19:42:01.100Z,45.00
2019-03-22T19:47:10.383Z,44.73
2019-03-22T19:52:17.386Z,47.33
2019-03-22T19:57:23.286Z,50.58
2019-03-22T20:02:29.198Z,49.50
2019-03-22T20:07:35.483Z,49.08
2019-03-22T20:12:41.363Z,48.33
2019-03-22T20:17:47.528Z,51.68
2019-03-22T20:22:54.257Z,56.77
2019-03-22T20:28:00.595Z,51.77
2019-03-22T20:33:06.977Z,59.50
2019-03-22T20:38:12.905Z,55.80
2019-03-22T20:43:21.227Z,56.35
2019-03-22T20:48:27.326Z,55.20
2019-03-22T20:53:33.247Z,59.03
2019-03-22T20:58:40.137Z,54.15
2019-03-22T21:03:46.634Z,55.90
2019-03-22T21:08:52.471Z,58.58
2019-03-22T21:13:58.994Z,55.52
2019-03-22T21:19:05.173Z,59.65
2019-03-22T21:24:10.976Z,60.00
2019-03-22T21:29:16.817Z,63.00
2019-03-22T21:34:22.618Z,59.55
2019-03-22T21:39:28.826Z,64.07
2019-03-22T21:44:34.637Z,57.78
2019-03-22T21:49:40.443Z,64.45
2019-03-22T21:54:46.343Z,60.23
2019-03-22T21:59:52.383Z,62.25
2019-03-22T22:04:58.317Z,55.80
2019-03-22T22:10:04.263Z,65.65
2019-03-22T22:15:12.375Z,63.70
2019-03-22T22:20:28.432Z,64.00
2019-03-22T22:25:25.793Z,68.17
2019-03-22T22:30:31.607Z,65.60
2019-03-22T22:35:37.530Z,59.38
2019-03-22T22:40:44.120Z,60.98
2019-03-22T22:45:50.982Z,60.28
2019-03-22T22:50:57.023Z,59.58
2019-03-22T22:56:02.834Z,56.15
2019-03-22T23:01:08.636Z,57.93
2019-03-22T23:06:14.647Z,51.85
2019-03-22T23:11:20.458Z,56.02
2019-03-22T23:16:26.628Z,53.92
2019-03-22T23:21:32.846Z,55.05
2019-03-22T23:26:39.736Z,59.18
2019-03-22T23:31:45.700Z,54.53
2019-03-22T23:36:51.643Z,50.78
2019-03-22T23:41:57.545Z,44.23
2019-03-22T23:47:03.713Z,43.55
2019-03-22T23:52:09.525Z,38.13
2019-03-22T23:57:15.322Z,38.53
